Time;durP1;ratioP1;P1;durP2;ratioP2;P2;SDS_P1;SDS_P2;PMS_P1;PMS_P2;Temp;Humidity;BMP_temperature;BMP_pressure;BME280_temperature;BME280_humidity;BME280_pressure;Samples;Min_cycle;Max_cycle;Signal;HPM_P1;HPM_P2
2023/03/04 00:02:17;;;;;;;35.73;7.13;;;6.30;99.90;;;;;;5110254;28;20203;-74
2023/03/04 00:04:44;;;;;;;27.10;7.20;;;6.10;99.90;;;;;;5105859;28;21015;-74
2023/03/04 00:07:15;;;;;;;26.40;6.13;;;;;;;;;;5106797;28;20226;-74
2023/03/04 00:09:42;;;;;;;29.60;6.53;;;6.20;99.90;;;;;;5107588;28;20215;-75
2023/03/04 00:12:09;;;;;;;24.10;6.00;;;6.30;99.90;;;;;;5108645;28;20588;-74
2023/03/04 00:14:36;;;;;;;24.83;5.40;;;6.30;99.90;;;;;;5107768;28;20215;-74
2023/03/04 00:17:03;;;;;;;24.73;6.13;;;6.30;99.90;;;;;;5109440;28;20230;-74
2023/03/04 00:19:31;;;;;;;24.27;5.77;;;6.30;99.90;;;;;;5100806;28;20231;-74
2023/03/04 00:21:58;;;;;;;26.23;6.67;;;6.50;99.90;;;;;;5108428;28;20668;-75
2023/03/04 00:24:25;;;;;;;25.20;6.07;;;6.40;99.90;;;;;;5105957;28;20203;-75
2023/03/04 00:26:52;;;;;;;25.17;5.90;;;6.40;99.90;;;;;;5107789;28;21441;-75
2023/03/04 00:29:20;;;;;;;25.90;6.03;;;6.40;99.90;;;;;;5107199;28;20281;-75
2023/03/04 00:31:47;;;;;;;29.03;6.67;;;6.40;99.90;;;;;;5104566;28;20687;-75
2023/03/04 00:34:14;;;;;;;25.77;5.77;;;6.40;99.90;;;;;;5105440;28;20695;-74
2023/03/04 00:36:43;;;;;;;24.60;6.43;;;6.40;99.90;;;;;;5107127;28;20239;-74
2023/03/04 00:39:10;;;;;;;25.47;6.30;;;6.50;99.90;;;;;;5107044;28;20264;-74
2023/03/04 00:41:37;;;;;;;26.03;5.97;;;6.40;99.90;;;;;;5110075;28;20207;-75
2023/03/04 00:44:04;;;;;;;22.23;5.97;;;6.40;99.90;;;;;;5109387;28;20302;-74
2023/03/04 00:46:31;;;;;;;29.27;6.60;;;6.40;99.90;;;;;;5108817;28;20231;-75
2023/03/04 00:48:58;;;;;;;30.40;6.57;;;6.40;99.90;;;;;;5106437;28;20203;-76
2023/03/04 00:51:25;;;;;;;26.50;6.27;;;6.40;99.90;;;;;;5098481;28;20575;-75
2023/03/04 00:53:53;;;;;;;25.10;6.27;;;6.40;99.90;;;;;;5104630;28;20662;-76
2023/03/04 00:56:20;;;;;;;30.70;7.27;;;6.40;99.90;;;;;;5107157;28;20719;-75
2023/03/04 00:58:49;;;;;;;22.47;5.97;;;6.40;99.90;;;;;;5100463;28;20764;-75
2023/03/04 01:01:16;;;;;;;28.47;6.97;;;6.60;99.90;;;;;;5103203;28;20199;-75
2023/03/04 01:03:43;;;;;;;19.67;5.63;;;6.40;99.90;;;;;;5098984;28;20262;-75
2023/03/04 01:06:11;;;;;;;21.93;5.60;;;6.40;99.90;;;;;;5103699;28;20711;-75
2023/03/04 01:08:39;;;;;;;31.00;6.60;;;6.40;99.90;;;;;;5106678;28;20198;-75
2023/03/04 01:11:07;;;;;;;24.37;6.73;;;6.30;99.90;;;;;;5101946;28;20686;-75
2023/03/04 01:13:35;;;;;;;32.63;7.17;;;6.10;99.90;;;;;;5106351;28;20208;-75
2023/03/04 01:16:02;;;;;;;26.23;6.57;;;6.30;99.90;;;;;;5104769;28;20234;-75
2023/03/04 01:18:29;;;;;;;31.20;7.13;;;6.30;99.90;;;;;;5104515;28;20234;-75
2023/03/04 01:20:57;;;;;;;28.23;6.10;;;6.30;99.90;;;;;;5107142;28;20498;-75
2023/03/04 01:23:24;;;;;;;32.10;6.43;;;6.50;99.90;;;;;;5106762;28;20647;-75
2023/03/04 01:28:34;;;;;;;21.03;5.53;;;6.30;99.90;;;;;;5206969;22;20227;-75
2023/03/04 01:31:01;;;;;;;28.17;7.33;;;6.30;99.90;;;;;;5088916;28;20266;-75
2023/03/04 01:33:28;;;;;;;21.37;5.33;;;6.30;99.90;;;;;;5087367;28;20210;-75
2023/03/04 01:35:55;;;;;;;29.33;6.10;;;6.30;99.90;;;;;;5105834;28;20223;-73
2023/03/04 01:38:22;;;;;;;28.83;6.27;;;6.30;99.90;;;;;;5105739;28;20266;-75
2023/03/04 01:40:50;;;;;;;32.47;6.90;;;6.30;99.90;;;;;;5087635;28;20314;-75
2023/03/04 01:43:22;;;;;;;31.23;6.40;;;6.30;99.90;;;;;;5106714;28;20764;-75
2023/03/04 01:45:52;;;;;;;23.97;6.67;;;6.30;99.90;;;;;;5105670;28;20300;-74
2023/03/04 01:48:23;;;;;;;19.53;5.57;;;6.30;99.90;;;;;;5089398;28;20203;-73
2023/03/04 01:50:51;;;;;;;29.43;6.47;;;6.40;99.90;;;;;;5090070;28;20679;-73
2023/03/04 01:53:21;;;;;;;31.00;7.27;;;6.30;99.90;;;;;;5107501;28;20211;-73
2023/03/04 01:55:49;;;;;;;40.53;10.83;;;6.30;99.90;;;;;;5102075;28;20250;-74
2023/03/04 01:58:16;;;;;;;28.90;6.57;;;6.30;99.90;;;;;;5101412;28;20210;-74
2023/03/04 02:00:44;;;;;;;31.97;6.23;;;6.40;99.90;;;;;;5103352;28;20216;-74
2023/03/04 02:03:16;;;;;;;31.30;6.10;;;6.40;99.90;;;;;;5086714;28;20207;-74
2023/03/04 02:08:25;;;;;;;25.17;6.07;;;6.30;99.90;;;;;;5276644;22;20712;-73
2023/03/04 02:10:52;;;;;;;24.70;6.00;;;6.30;99.90;;;;;;5105435;28;20207;-73
2023/03/04 02:13:19;;;;;;;35.83;6.93;;;6.40;99.90;;;;;;5103881;28;20201;-75
2023/03/04 02:18:30;;;;;;;27.73;6.53;;;6.30;99.90;;;;;;5283143;22;20231;-73
2023/03/04 02:21:04;;;;;;;27.40;6.80;;;6.30;99.90;;;;;;5107891;28;20526;-74
2023/03/04 02:23:41;;;;;;;27.43;6.40;;;6.30;99.90;;;;;;5103115;28;20198;-74
2023/03/04 02:26:15;;;;;;;26.33;6.03;;;6.40;99.90;;;;;;5084991;28;20233;-74
2023/03/04 02:28:44;;;;;;;23.50;5.93;;;6.20;99.90;;;;;;5086832;28;20251;-74
2023/03/04 02:31:22;;;;;;;30.10;6.30;;;6.30;99.90;;;;;;5093896;22;20780;-82
2023/03/04 02:33:49;;;;;;;34.03;6.80;;;6.30;99.90;;;;;;5086142;28;20211;-83
2023/03/04 02:36:16;;;;;;;39.93;8.53;;;6.30;99.90;;;;;;5069422;22;20343;-75
2023/03/04 02:38:43;;;;;;;32.97;7.57;;;6.30;99.90;;;;;;5075292;28;20362;-75
2023/03/04 02:41:16;;;;;;;32.40;7.10;;;6.30;99.90;;;;;;5084289;28;20214;-76
2023/03/04 02:43:44;;;;;;;31.73;7.70;;;6.30;99.90;;;;;;5076143;28;20222;-76
2023/03/04 02:46:13;;;;;;;25.17;6.57;;;6.30;99.90;;;;;;5055671;28;20228;-76
2023/03/04 02:48:41;;;;;;;34.40;7.40;;;6.30;99.90;;;;;;5066747;28;20205;-75
2023/03/04 02:51:08;;;;;;;27.43;6.57;;;6.30;99.90;;;;;;5069378;28;20211;-75
2023/03/04 02:53:35;;;;;;;27.83;6.67;;;6.20;99.90;;;;;;5069440;28;20212;-76
2023/03/04 02:56:02;;;;;;;28.33;7.33;;;6.20;99.90;;;;;;5066582;28;20346;-76
2023/03/04 02:58:35;;;;;;;31.93;6.77;;;6.20;99.90;;;;;;5052358;28;20228;-75
2023/03/04 03:01:02;;;;;;;35.57;7.50;;;6.20;99.90;;;;;;5057652;28;20756;-75
2023/03/04 03:03:30;;;;;;;30.53;7.67;;;6.20;99.90;;;;;;5051716;28;20210;-77
2023/03/04 03:05:57;;;;;;;30.90;6.93;;;6.30;99.90;;;;;;5050637;28;20650;-77
2023/03/04 03:08:25;;;;;;;35.10;8.47;;;6.40;99.90;;;;;;5065926;28;20207;-75
2023/03/04 03:10:53;;;;;;;36.27;8.60;;;6.20;99.90;;;;;;5053662;28;20492;-75
2023/03/04 03:13:23;;;;;;;31.20;9.00;;;6.20;99.90;;;;;;5053219;28;20214;-75
2023/03/04 03:15:51;;;;;;;32.10;9.40;;;6.20;99.90;;;;;;5054223;28;20320;-75
2023/03/04 03:18:18;;;;;;;37.63;8.77;;;6.20;99.90;;;;;;5060324;28;20740;-76
2023/03/04 03:20:45;;;;;;;30.07;7.33;;;6.20;99.90;;;;;;5057487;28;20214;-75
2023/03/04 03:23:13;;;;;;;34.40;7.07;;;6.20;99.90;;;;;;5054077;28;20591;-75
2023/03/04 03:25:39;;;;;;;33.53;7.43;;;6.20;99.90;;;;;;5050161;28;20234;-75
2023/03/04 03:28:07;;;;;;;33.43;7.80;;;6.10;99.90;;;;;;5049488;28;20216;-74
2023/03/04 03:30:33;;;;;;;34.37;7.57;;;6.30;99.90;;;;;;5067635;28;20210;-75
2023/03/04 03:33:02;;;;;;;30.00;7.60;;;;;;;;;;5067451;28;20202;-75
2023/03/04 03:35:29;;;;;;;35.50;8.40;;;6.20;99.90;;;;;;5047728;28;20264;-75
2023/03/04 03:37:56;;;;;;;30.73;8.23;;;6.20;99.90;;;;;;5049622;28;20345;-74
2023/03/04 03:40:23;;;;;;;27.50;7.43;;;6.10;99.90;;;;;;5068855;28;20342;-76
2023/03/04 03:42:50;;;;;;;29.73;7.37;;;6.20;99.90;;;;;;5048933;28;20756;-76
2023/03/04 03:45:17;;;;;;;31.27;8.43;;;6.10;99.90;;;;;;5066588;28;20228;-74
2023/03/04 03:47:45;;;;;;;31.50;8.30;;;6.50;99.90;;;;;;5067496;28;20235;-73
2023/03/04 03:50:13;;;;;;;35.37;8.73;;;6.20;99.90;;;;;;5066251;28;20749;-74
2023/03/04 03:52:40;;;;;;;28.67;7.63;;;6.20;99.90;;;;;;5067361;28;20212;-76
2023/03/04 03:55:07;;;;;;;28.93;7.20;;;6.20;99.90;;;;;;5066100;28;20334;-75
2023/03/04 03:57:34;;;;;;;34.60;7.40;;;6.30;99.90;;;;;;5065717;28;20214;-75
2023/03/04 04:00:01;;;;;;;29.93;7.73;;;6.50;99.90;;;;;;5061737;28;20295;-75
2023/03/04 04:02:39;;;;;;;35.00;8.13;;;6.30;99.90;;;;;;5061677;28;20225;-75
2023/03/04 04:05:07;;;;;;;28.40;7.10;;;6.20;99.90;;;;;;5044269;28;20258;-74
2023/03/04 04:07:36;;;;;;;26.30;6.80;;;6.30;99.90;;;;;;5066468;28;20215;-75
2023/03/04 04:10:04;;;;;;;27.10;6.07;;;6.20;99.90;;;;;;5069460;28;20283;-75
2023/03/04 04:12:32;;;;;;;24.60;6.23;;;6.20;99.90;;;;;;5051096;28;20207;-75
2023/03/04 04:14:59;;;;;;;29.60;6.07;;;6.30;99.90;;;;;;5067418;28;20224;-75
2023/03/04 04:17:26;;;;;;;36.03;8.20;;;6.30;99.90;;;;;;5066110;28;20212;-75
2023/03/04 04:19:52;;;;;;;25.17;6.23;;;6.30;99.90;;;;;;5067810;28;20232;-75
2023/03/04 04:22:21;;;;;;;27.47;6.30;;;6.30;99.90;;;;;;5075115;28;20697;-75
2023/03/04 04:24:49;;;;;;;27.67;7.17;;;6.20;99.90;;;;;;5054691;28;20227;-75
2023/03/04 04:27:16;;;;;;;26.07;7.33;;;6.20;99.90;;;;;;5068665;28;20211;-75
2023/03/04 04:29:42;;;;;;;30.73;8.20;;;6.20;99.90;;;;;;5077071;28;20751;-75
2023/03/04 04:32:11;;;;;;;27.00;7.53;;;6.20;99.90;;;;;;5067648;28;20207;-75
2023/03/04 04:34:39;;;;;;;27.83;7.10;;;6.10;99.90;;;;;;5062683;28;20780;-75
2023/03/04 04:37:06;;;;;;;29.67;7.63;;;6.20;99.90;;;;;;5069905;28;20212;-75
2023/03/04 04:39:33;;;;;;;31.50;8.30;;;6.10;99.90;;;;;;5077667;28;20232;-76
2023/03/04 04:42:01;;;;;;;27.57;7.30;;;6.10;99.90;;;;;;5066750;28;20307;-75
2023/03/04 04:44:28;;;;;;;29.50;7.80;;;6.20;99.90;;;;;;5065395;28;20222;-75
2023/03/04 04:46:55;;;;;;;29.87;7.10;;;6.20;99.90;;;;;;5064464;28;20205;-75
2023/03/04 04:49:22;;;;;;;30.53;7.93;;;6.20;99.90;;;;;;5069509;28;20203;-75
2023/03/04 04:51:48;;;;;;;29.93;7.60;;;6.10;99.90;;;;;;5067355;28;20217;-76
2023/03/04 04:54:16;;;;;;;28.67;7.50;;;6.20;99.90;;;;;;5065962;28;20277;-75
2023/03/04 04:56:43;;;;;;;27.87;6.50;;;6.20;99.90;;;;;;5066864;28;20266;-75
2023/03/04 04:59:11;;;;;;;25.60;7.20;;;6.20;99.90;;;;;;5067342;28;20239;-74
2023/03/04 05:01:38;;;;;;;24.10;6.93;;;6.20;99.90;;;;;;5066534;28;20222;-76
2023/03/04 05:04:05;;;;;;;30.67;8.13;;;6.20;99.90;;;;;;5066388;28;20204;-75
2023/03/04 05:06:32;;;;;;;23.73;6.83;;;6.20;99.90;;;;;;5056434;28;20235;-75
2023/03/04 05:08:59;;;;;;;31.43;7.20;;;6.20;99.90;;;;;;5067416;28;20219;-75
2023/03/04 05:11:26;;;;;;;29.33;7.43;;;7.30;99.90;;;;;;5065399;28;20210;-74
2023/03/04 05:13:53;;;;;;;35.73;6.73;;;6.20;99.90;;;;;;5063140;28;20217;-75
2023/03/04 05:16:21;;;;;;;30.17;6.50;;;6.20;99.90;;;;;;5063545;28;20232;-74
2023/03/04 05:18:48;;;;;;;29.67;6.27;;;6.10;99.90;;;;;;5049352;28;20261;-75
2023/03/04 05:21:15;;;;;;;25.43;6.43;;;6.10;99.90;;;;;;5065168;28;20204;-75
2023/03/04 05:23:43;;;;;;;26.67;5.90;;;6.10;99.90;;;;;;5065663;28;20581;-75
2023/03/04 05:26:14;;;;;;;28.00;6.17;;;5.90;99.90;;;;;;5063873;28;20250;-75
2023/03/04 05:28:41;;;;;;;25.17;6.30;;;6.20;99.90;;;;;;5065422;28;20276;-75
2023/03/04 05:31:08;;;;;;;38.13;9.23;;;6.10;99.90;;;;;;5065289;28;20226;-74
2023/03/04 05:33:36;;;;;;;32.80;7.50;;;6.10;99.90;;;;;;5063260;28;20685;-74
2023/03/04 05:36:05;;;;;;;34.10;7.40;;;6.10;99.90;;;;;;5067138;28;20774;-75
2023/03/04 05:38:32;;;;;;;26.20;6.77;;;6.10;99.90;;;;;;5067749;28;20204;-75
2023/03/04 05:41:01;;;;;;;29.60;6.47;;;6.10;99.90;;;;;;5065362;28;20231;-76
2023/03/04 05:43:28;;;;;;;25.97;5.67;;;6.00;99.90;;;;;;5047485;28;20208;-74
2023/03/04 05:45:55;;;;;;;27.03;6.63;;;6.10;99.90;;;;;;5065304;28;20242;-75
2023/03/04 05:48:23;;;;;;;20.10;4.87;;;6.10;99.90;;;;;;5069619;28;20207;-74
2023/03/04 05:50:54;;;;;;;24.17;6.33;;;6.10;99.90;;;;;;5065230;28;20221;-75
2023/03/04 05:53:22;;;;;;;26.10;7.47;;;6.20;99.90;;;;;;5072020;28;20811;-75
2023/03/04 05:55:49;;;;;;;24.90;6.60;;;6.10;99.90;;;;;;5047682;28;20249;-75
2023/03/04 05:58:17;;;;;;;32.73;8.33;;;6.20;99.90;;;;;;5064402;28;20240;-76
2023/03/04 06:00:45;;;;;;;28.83;6.80;;;6.10;99.90;;;;;;5045529;28;20225;-76
2023/03/04 06:03:15;;;;;;;28.23;6.47;;;6.20;99.90;;;;;;5066329;28;20966;-76
2023/03/04 06:05:42;;;;;;;25.63;6.40;;;6.20;99.90;;;;;;5054762;28;20226;-74
2023/03/04 06:08:12;;;;;;;29.87;6.70;;;6.10;99.90;;;;;;5061511;28;20203;-75
2023/03/04 06:10:39;;;;;;;24.23;5.20;;;6.20;99.90;;;;;;5065424;28;20204;-75
2023/03/04 06:13:06;;;;;;;32.17;6.20;;;6.20;99.90;;;;;;5065387;28;20731;-75
2023/03/04 06:15:36;;;;;;;23.87;5.13;;;6.20;99.90;;;;;;5068614;28;20242;-74
2023/03/04 06:18:03;;;;;;;21.90;5.57;;;6.20;99.90;;;;;;5083217;28;20215;-74
2023/03/04 06:20:30;;;;;;;21.80;5.30;;;6.10;99.90;;;;;;5085400;28;20247;-74
2023/03/04 06:22:57;;;;;;;23.47;5.83;;;6.20;99.90;;;;;;5092351;28;20217;-75
2023/03/04 06:25:26;;;;;;;28.27;6.33;;;6.30;99.90;;;;;;5078475;28;20305;-75
2023/03/04 06:27:53;;;;;;;27.30;6.47;;;6.30;99.90;;;;;;5067595;28;20212;-75
2023/03/04 06:30:20;;;;;;;24.70;5.90;;;6.20;99.90;;;;;;5069804;28;20235;-74
2023/03/04 06:32:47;;;;;;;27.90;6.57;;;6.10;99.90;;;;;;5070394;28;20832;-74
2023/03/04 06:35:16;;;;;;;24.53;6.13;;;6.20;99.90;;;;;;5056329;28;20229;-73
2023/03/04 06:37:43;;;;;;;31.07;7.23;;;6.20;99.90;;;;;;5069970;28;20205;-73
2023/03/04 06:40:12;;;;;;;30.43;7.03;;;6.20;99.90;;;;;;5069112;28;20289;-75
2023/03/04 06:42:42;;;;;;;26.03;6.17;;;6.20;99.90;;;;;;5069338;28;20228;-74
2023/03/04 06:45:11;;;;;;;28.03;5.80;;;6.20;99.90;;;;;;5064144;28;20721;-75
2023/03/04 06:47:38;;;;;;;32.90;7.10;;;6.20;99.90;;;;;;5066783;28;20240;-74
2023/03/04 06:50:06;;;;;;;30.50;6.60;;;6.20;99.90;;;;;;5053320;28;20215;-74
2023/03/04 06:52:33;;;;;;;25.33;5.47;;;6.30;99.90;;;;;;5071175;28;20209;-74
2023/03/04 06:55:00;;;;;;;30.47;6.00;;;6.10;99.90;;;;;;5050372;28;20238;-74
2023/03/04 06:57:27;;;;;;;22.03;5.33;;;6.50;99.90;;;;;;5069686;28;20205;-74
2023/03/04 06:59:55;;;;;;;25.47;6.03;;;7.90;99.90;;;;;;5069689;28;20220;-74
2023/03/04 07:02:22;;;;;;;25.17;5.47;;;6.40;99.90;;;;;;5051515;28;20230;-74
2023/03/04 07:04:49;;;;;;;22.67;5.43;;;6.20;99.90;;;;;;5050675;28;20313;-74
2023/03/04 07:07:16;;;;;;;28.23;6.47;;;6.40;99.90;;;;;;5069739;28;20200;-73
2023/03/04 07:09:43;;;;;;;24.83;5.97;;;6.40;99.90;;;;;;5070793;28;20881;-73
2023/03/04 07:12:10;;;;;;;27.13;5.37;;;6.60;99.90;;;;;;5071265;28;20233;-74
2023/03/04 07:14:37;;;;;;;26.13;5.53;;;6.40;99.90;;;;;;5071037;28;20709;-74
2023/03/04 07:17:05;;;;;;;27.53;5.70;;;6.60;99.90;;;;;;5070008;28;20212;-74
2023/03/04 07:19:32;;;;;;;30.87;7.63;;;6.40;99.90;;;;;;5062179;28;20577;-75
2023/03/04 07:21:59;;;;;;;35.60;8.93;;;6.60;99.90;;;;;;5069501;28;20596;-74
2023/03/04 07:24:26;;;;;;;33.73;8.87;;;6.50;99.90;;;;;;5081276;28;20254;-74
2023/03/04 07:26:54;;;;;;;34.20;8.27;;;6.40;99.90;;;;;;5051411;28;20216;-73
2023/03/04 07:29:21;;;;;;;27.67;7.33;;;6.50;99.90;;;;;;5053403;28;20319;-74
2023/03/04 07:31:48;;;;;;;22.07;5.33;;;6.50;99.90;;;;;;5068788;28;20294;-75
2023/03/04 07:37:00;;;;;;;26.20;6.97;;;6.60;99.90;;;;;;5517769;22;20323;-74
2023/03/04 07:39:27;;;;;;;26.63;6.93;;;6.70;99.90;;;;;;5068249;28;20660;-74
2023/03/04 07:41:54;;;;;;;28.73;6.47;;;6.70;99.90;;;;;;5067575;28;20207;-75
2023/03/04 07:44:23;;;;;;;27.97;6.33;;;6.90;99.90;;;;;;5071640;28;20215;-73
2023/03/04 07:46:49;;;;;;;28.83;6.43;;;6.90;99.90;;;;;;5062228;28;20207;-75
2023/03/04 07:49:18;;;;;;;19.10;4.63;;;6.90;99.90;;;;;;5076865;28;20220;-76
2023/03/04 07:51:45;;;;;;;18.33;5.30;;;6.80;99.90;;;;;;5093141;22;20237;-80
2023/03/04 07:54:12;;;;;;;23.63;5.33;;;7.30;99.90;;;;;;5086801;28;20212;-81
2023/03/04 07:56:40;;;;;;;23.10;4.77;;;6.70;99.90;;;;;;5081829;28;20228;-80
2023/03/04 07:59:07;;;;;;;20.90;5.30;;;6.90;99.90;;;;;;5088782;28;20220;-81
2023/03/04 08:01:37;;;;;;;21.07;4.90;;;7.50;99.90;;;;;;5095255;28;20220;-81
2023/03/04 08:04:06;;;;;;;19.63;4.60;;;7.40;99.90;;;;;;5084182;28;20199;-83
2023/03/04 08:06:34;;;;;;;16.27;4.30;;;7.50;99.90;;;;;;5091880;28;20264;-86
2023/03/04 08:09:05;;;;;;;18.00;4.43;;;7.70;99.90;;;;;;5091440;28;20235;-81
2023/03/04 08:11:34;;;;;;;20.73;5.07;;;7.60;99.90;;;;;;5092487;28;20260;-85
2023/03/04 08:14:02;;;;;;;24.53;5.23;;;7.80;99.90;;;;;;5090957;28;20192;-85
2023/03/04 08:16:30;;;;;;;15.50;4.27;;;7.80;99.90;;;;;;5091356;28;20250;-83
2023/03/04 08:19:00;;;;;;;18.53;4.70;;;7.80;99.90;;;;;;5086871;28;20318;-83
2023/03/04 08:21:28;;;;;;;14.03;3.77;;;7.80;99.90;;;;;;5087815;28;20231;-84
2023/03/04 08:23:58;;;;;;;16.20;4.67;;;7.80;99.90;;;;;;5079493;28;20211;-84
2023/03/04 08:26:28;;;;;;;18.27;4.50;;;7.90;99.90;;;;;;5087994;28;20286;-84
2023/03/04 08:28:56;;;;;;;19.40;4.97;;;8.30;99.90;;;;;;5087428;28;20219;-84
2023/03/04 08:31:24;;;;;;;15.83;4.33;;;8.40;99.90;;;;;;5089715;28;20188;-86
2023/03/04 08:33:51;;;;;;;16.30;4.83;;;8.70;99.90;;;;;;5090014;28;20200;-85
2023/03/04 08:36:18;;;;;;;14.50;4.00;;;8.50;99.90;;;;;;5089853;28;20239;-83
2023/03/04 08:38:45;;;;;;;11.43;3.60;;;8.60;99.90;;;;;;5089525;28;20204;-83
2023/03/04 08:41:15;;;;;;;16.80;4.20;;;8.60;99.90;;;;;;5090372;28;20220;-87
2023/03/04 08:43:43;;;;;;;18.93;3.83;;;8.50;99.90;;;;;;5079401;28;20674;-83
2023/03/04 08:46:10;;;;;;;15.03;3.50;;;8.30;99.90;;;;;;5074217;28;20236;-83
2023/03/04 08:48:37;;;;;;;15.67;3.87;;;8.20;99.90;;;;;;5075325;28;20235;-84
2023/03/04 08:51:08;;;;;;;21.63;4.57;;;8.40;99.90;;;;;;5076319;28;20222;-83
2023/03/04 08:53:40;;;;;;;19.17;4.13;;;8.10;99.90;;;;;;5079003;28;20215;-85
2023/03/04 08:56:08;;;;;;;17.00;4.23;;;8.10;99.90;;;;;;5075721;28;20235;-87
2023/03/04 08:58:43;;;;;;;16.63;4.17;;;8.10;99.90;;;;;;5077485;28;20486;-84
2023/03/04 09:01:14;;;;;;;21.93;4.20;;;8.10;99.90;;;;;;5074819;28;20228;-85
2023/03/04 09:03:41;;;;;;;16.30;4.13;;;8.40;99.90;;;;;;5076568;28;20213;-85
2023/03/04 09:06:09;;;;;;;16.07;3.63;;;8.30;99.90;;;;;;5067128;28;20227;-86
2023/03/04 09:08:41;;;;;;;21.83;4.37;;;8.30;99.90;;;;;;5073897;28;20275;-85
2023/03/04 09:11:12;;;;;;;20.03;4.03;;;8.40;99.90;;;;;;5073425;28;20197;-83
2023/03/04 09:13:39;;;;;;;18.50;4.40;;;8.60;99.90;;;;;;5077511;28;20208;-86
2023/03/04 09:16:15;;;;;;;13.47;3.60;;;8.90;99.90;;;;;;5075366;28;20252;-84
2023/03/04 09:18:43;;;;;;;15.27;3.60;;;9.00;99.90;;;;;;5083609;28;20838;-86
2023/03/04 09:21:14;;;;;;;16.50;4.57;;;10.00;99.90;;;;;;5078875;28;20242;-86
2023/03/04 09:23:41;;;;;;;13.33;3.63;;;10.00;99.90;;;;;;5071823;28;20216;-86
2023/03/04 09:26:18;;;;;;;10.40;2.93;;;8.80;99.90;;;;;;5080532;28;20227;-84
2023/03/04 09:28:54;;;;;;;16.00;4.23;;;8.70;99.90;;;;;;5076096;28;20216;-83
2023/03/04 09:31:32;;;;;;;17.43;4.27;;;8.70;99.90;;;;;;5077127;28;20215;-83
2023/03/04 09:34:00;;;;;;;15.53;4.03;;;9.60;99.90;;;;;;5080310;28;20200;-85
2023/03/04 09:36:34;;;;;;;20.57;4.37;;;9.20;99.90;;;;;;5074345;28;20280;-83
2023/03/04 09:39:07;;;;;;;12.23;3.33;;;9.20;99.90;;;;;;5077585;28;20211;-84
2023/03/04 09:41:40;;;;;;;16.63;4.10;;;9.20;99.90;;;;;;5071190;28;20220;-84
2023/03/04 09:44:21;;;;;;;14.57;3.33;;;9.10;99.90;;;;;;5073183;28;21071;-86
2023/03/04 09:46:54;;;;;;;13.10;3.43;;;8.80;99.90;;;;;;5079081;28;20251;-86
2023/03/04 09:49:23;;;;;;;13.10;3.27;;;12.50;99.90;;;;;;5082035;28;20670;-90
2023/03/04 09:52:00;;;;;;;19.53;4.20;;;9.10;99.90;;;;;;5084095;28;20219;-84
2023/03/04 09:54:53;;;;;;;13.87;3.47;;;9.00;99.90;;;;;;5076066;28;20721;-83
2023/03/04 09:57:30;;;;;;;12.37;3.23;;;9.10;99.90;;;;;;5075181;28;20235;-84
2023/03/04 10:00:18;;;;;;;13.57;3.10;;;9.20;99.90;;;;;;5092112;28;20208;-87
2023/03/04 10:03:11;;;;;;;11.50;3.13;;;9.20;99.90;;;;;;5087180;28;20252;-84
2023/03/04 10:05:44;;;;;;;27.53;5.87;;;9.40;99.90;;;;;;5094843;22;20319;-78
2023/03/04 10:08:33;;;;;;;20.63;5.13;;;9.40;99.90;;;;;;5048352;28;20373;-78
2023/03/04 10:11:09;;;;;;;21.23;4.60;;;9.50;99.90;;;;;;5044770;28;20406;-78
2023/03/04 10:13:43;;;;;;;20.03;4.97;;;9.30;99.90;;;;;;5051523;28;20645;-78
2023/03/04 10:16:14;;;;;;;25.27;5.50;;;9.40;99.90;;;;;;5048156;28;20212;-79
2023/03/04 10:18:50;;;;;;;30.60;7.13;;;9.40;99.90;;;;;;5041182;28;20666;-80
2023/03/04 10:21:23;;;;;;;29.50;6.63;;;9.70;99.90;;;;;;5032179;28;20239;-78
2023/03/04 10:23:50;;;;;;;20.13;4.67;;;9.70;99.90;;;;;;5045662;28;20224;-79
2023/03/04 10:26:20;;;;;;;22.73;5.10;;;9.80;99.90;;;;;;5046275;28;20250;-78
2023/03/04 10:28:47;;;;;;;23.50;4.93;;;10.00;99.90;;;;;;5045278;28;20208;-78
2023/03/04 10:31:19;;;;;;;22.47;5.20;;;10.20;99.90;;;;;;5583387;22;20664;-79
2023/03/04 10:33:47;;;;;;;19.53;4.60;;;10.20;99.90;;;;;;5064582;28;20652;-79
2023/03/04 10:36:37;;;;;;;19.83;4.77;;;10.10;99.90;;;;;;5060726;28;20716;-78
2023/03/04 10:39:08;;;;;;;29.73;7.07;;;10.10;99.90;;;;;;5058254;28;20215;-76
2023/03/04 10:41:35;;;;;;;28.07;6.60;;;10.00;99.90;;;;;;5064604;28;20802;-77
2023/03/04 10:44:15;;;;;;;23.80;5.07;;;10.00;99.90;;;;;;5049860;28;20238;-77
2023/03/04 10:46:44;;;;;;;23.37;5.17;;;9.90;99.90;;;;;;5053745;28;20212;-80
2023/03/04 10:49:14;;;;;;;25.47;6.33;;;9.90;99.90;;;;;;5036817;28;20216;-78
2023/03/04 10:51:43;;;;;;;20.03;4.70;;;10.00;99.90;;;;;;5042778;28;20301;-77
2023/03/04 10:54:26;;;;;;;19.40;5.10;;;10.30;99.90;;;;;;5053034;28;20688;-76
2023/03/04 10:56:57;;;;;;;20.23;4.23;;;10.70;99.90;;;;;;5049412;28;20230;-76
2023/03/04 10:59:38;;;;;;;19.13;4.63;;;11.20;99.90;;;;;;5065273;28;20648;-75
2023/03/04 11:02:16;;;;;;;21.77;4.70;;;11.00;99.90;;;;;;5041686;28;20248;-76
2023/03/04 11:04:52;;;;;;;21.23;4.97;;;10.90;99.90;;;;;;5042938;28;20213;-76
2023/03/04 11:07:19;;;;;;;35.43;8.83;;;10.90;99.90;;;;;;5046637;28;20848;-76
2023/03/04 11:09:47;;;;;;;18.57;4.47;;;10.90;99.90;;;;;;5047833;28;20215;-76
2023/03/04 11:12:19;;;;;;;21.87;5.50;;;10.90;99.90;;;;;;5062551;28;20213;-76
2023/03/04 11:14:48;;;;;;;23.97;5.93;;;10.80;99.90;;;;;;5063839;28;20220;-76
2023/03/04 11:17:21;;;;;;;28.90;6.03;;;10.90;99.90;;;;;;5061877;28;20240;-75
2023/03/04 11:19:54;;;;;;;22.73;5.80;;;11.00;99.90;;;;;;5055886;28;20221;-75
2023/03/04 11:22:39;;;;;;;15.83;3.87;;;11.00;99.90;;;;;;5056054;28;20231;-76
2023/03/04 11:25:11;;;;;;;16.77;4.37;;;11.10;99.90;;;;;;5051937;28;20189;-75
2023/03/04 11:27:44;;;;;;;24.87;5.40;;;11.30;99.90;;;;;;5050702;28;20978;-76
2023/03/04 11:30:36;;;;;;;23.40;5.90;;;11.30;99.90;;;;;;5048752;28;20283;-76
2023/03/04 11:33:12;;;;;;;20.23;5.07;;;11.40;99.90;;;;;;5053886;28;20220;-75
2023/03/04 11:35:47;;;;;;;17.00;4.37;;;11.40;99.90;;;;;;5048772;28;20275;-76
2023/03/04 11:38:18;;;;;;;19.13;4.90;;;11.30;99.90;;;;;;5067455;28;20243;-76
2023/03/04 11:40:50;;;;;;;19.13;4.60;;;11.40;99.90;;;;;;5057001;28;20710;-76
2023/03/04 11:43:21;;;;;;;16.87;4.47;;;11.30;99.90;;;;;;5049636;28;20202;-76
2023/03/04 11:46:30;;;;;;;25.03;6.03;;;11.20;99.90;;;;;;5050654;28;20200;-76
2023/03/04 11:49:11;;;;;;;17.63;4.57;;;10.90;99.90;;;;;;5051776;28;20735;-76
2023/03/04 11:51:50;;;;;;;20.40;4.77;;;10.50;99.90;;;;;;5058084;28;20227;-76
2023/03/04 11:54:29;;;;;;;15.83;4.37;;;10.40;99.90;;;;;;5053133;28;20212;-76
2023/03/04 11:57:00;;;;;;;18.93;4.57;;;10.40;99.90;;;;;;5071752;28;20550;-76
2023/03/04 11:59:43;;;;;;;19.67;4.93;;;10.30;99.90;;;;;;5054313;28;20212;-76
2023/03/04 12:02:19;;;;;;;16.20;4.30;;;10.20;99.90;;;;;;5047837;28;20687;-76
2023/03/04 12:05:12;;;;;;;18.20;4.37;;;10.50;99.90;;;;;;5053205;28;20219;-76
2023/03/04 12:08:21;;;;;;;21.37;4.47;;;10.00;99.90;;;;;;5049236;28;20208;-76
2023/03/04 12:10:55;;;;;;;23.40;5.57;;;10.10;99.90;;;;;;5048964;28;20282;-76
2023/03/04 12:13:41;;;;;;;25.40;6.03;;;10.20;99.90;;;;;;5042585;28;20301;-76
2023/03/04 12:16:20;;;;;;;21.70;5.00;;;10.30;99.90;;;;;;5059221;28;20212;-76
2023/03/04 12:19:10;;;;;;;16.63;4.60;;;10.50;99.90;;;;;;5059683;28;20205;-76
2023/03/04 12:22:10;;;;;;;15.53;4.30;;;11.00;99.90;;;;;;5050988;28;20239;-76
2023/03/04 12:24:59;;;;;;;19.23;4.83;;;11.00;99.90;;;;;;5057914;28;20228;-76
2023/03/04 12:27:36;;;;;;;18.97;4.87;;;11.10;99.90;;;;;;5046406;28;20200;-76
2023/03/04 12:30:07;;;;;;;25.27;5.97;;;12.00;99.90;;;;;;5057833;28;20216;-76
2023/03/04 12:32:40;;;;;;;22.47;5.50;;;10.70;99.90;;;;;;5042712;28;20224;-76
2023/03/04 12:35:31;;;;;;;19.73;5.27;;;10.60;99.90;;;;;;5054730;28;20213;-76
2023/03/04 12:38:07;;;;;;;22.87;5.53;;;10.50;99.90;;;;;;5059079;28;20228;-76
2023/03/04 12:40:47;;;;;;;19.83;4.97;;;10.50;99.90;;;;;;5060703;28;20803;-76
2023/03/04 12:43:35;;;;;;;21.00;5.53;;;10.50;99.90;;;;;;5055986;28;20224;-76
2023/03/04 12:46:15;;;;;;;19.57;5.83;;;10.50;99.90;;;;;;5050963;28;20218;-76
2023/03/04 12:48:49;;;;;;;20.57;5.23;;;10.30;99.90;;;;;;5056068;28;20265;-76
2023/03/04 12:51:25;;;;;;;20.57;5.13;;;10.40;99.90;;;;;;5574351;22;20733;-76
2023/03/04 12:54:03;;;;;;;18.93;4.70;;;10.40;99.90;;;;;;5086722;28;20211;-76
2023/03/04 12:56:39;;;;;;;19.43;4.70;;;10.10;99.90;;;;;;5082826;28;20215;-76
2023/03/04 12:59:10;;;;;;;18.03;4.43;;;9.90;99.90;;;;;;5090421;28;20734;-76
2023/03/04 13:01:42;;;;;;;24.37;6.47;;;9.50;99.90;;;;;;5085891;28;20227;-74
2023/03/04 13:04:14;;;;;;;20.47;5.27;;;9.60;99.90;;;;;;5087480;28;20214;-77
2023/03/04 13:06:45;;;;;;;16.60;4.93;;;9.50;99.90;;;;;;5086500;28;20212;-76
2023/03/04 13:09:19;;;;;;;17.23;4.80;;;9.50;99.90;;;;;;5084644;28;20668;-76
2023/03/04 13:12:02;;;;;;;23.73;5.90;;;9.50;99.90;;;;;;5083928;28;20288;-77
2023/03/04 13:14:34;;;;;;;23.57;5.90;;;9.40;99.90;;;;;;5083620;28;20212;-75